KSAC

Sacramento Executive Airport

Sacramento, California, USA
KSAC 221120Z 2212/2312 33007KT P6SM FEW250 FM230100 VRB05KT P6SM SCT250
Issued Valid From Valid To
Jan-22 @ 11:20 UTC
(6 hours ago)
Jan-22 @ 12:00 UTC
(5 hours ago)
Jan-23 @ 12:00 UTC
(in 19 hours)
Jan-22 @ 12:00 to Jan-23 @ 01:00
KSAC 221120Z 2212/2312 33007KT P6SM FEW250
Wind Visibility Clouds
330° at 7 knots Greater than 6 miles
  • Few at 25,000' AGL
From Jan-23 @ 01:00 to Jan-23 @ 12:00
FM230100 VRB05KT P6SM SCT250
Wind Visibility Clouds
Variable at 5 knots Greater than 6 miles
  • Scattered at 25,000' AGL
KSAC 221120Z 2212/2312 33007KT P6SM FEW250 FM230100 VRB05KT P6SM SCT250
Issued Jan-22 @ 11:20 UTC
(6 hours ago)
Valid From Jan-22 @ 12:00 UTC
(5 hours ago)
Valid To Jan-23 @ 12:00 UTC
(in 19 hours)
Jan-22 @ 12:00 - Jan-23 @ 01:00
Wind Visibility
330° at 7 knots Greater than 6 miles
Clouds
  • Few at 25,000' AGL
From Jan-23 @ 01:00 - Jan-23 @ 12:00
Wind Visibility
Variable at 5 knots Greater than 6 miles
Clouds
  • Scattered at 25,000' AGL